sensor_id;sensor_type;location;lat;lon;timestamp;pressure;altitude;pressure_sealevel;temperature;humidity
56600;BME280;51832;48.152;11.530;2023-04-28T00:01:34;95445.22;;;14.24;59.10
56600;BME280;51832;48.152;11.530;2023-04-28T00:06:34;95436.00;;;14.27;58.98
56600;BME280;51832;48.152;11.530;2023-04-28T00:11:36;95438.22;;;14.35;59.45
56600;BME280;51832;48.152;11.530;2023-04-28T00:16:37;95427.03;;;14.28;59.13
56600;BME280;51832;48.152;11.530;2023-04-28T00:21:38;95422.38;;;14.57;58.63
56600;BME280;51832;48.152;11.530;2023-04-28T00:26:38;95421.03;;;14.54;58.17
56600;BME280;51832;48.152;11.530;2023-04-28T00:31:39;95415.41;;;14.51;58.61
56600;BME280;51832;48.152;11.530;2023-04-28T00:36:39;95403.28;;;14.55;57.69
56600;BME280;51832;48.152;11.530;2023-04-28T00:41:40;95407.34;;;14.63;57.75
56600;BME280;51832;48.152;11.530;2023-04-28T00:46:40;95415.34;;;14.68;57.91
56600;BME280;51832;48.152;11.530;2023-04-28T00:51:41;95412.22;;;14.49;58.06
56600;BME280;51832;48.152;11.530;2023-04-28T00:56:42;95408.50;;;14.50;58.51
56600;BME280;51832;48.152;11.530;2023-04-28T01:01:43;95406.28;;;14.64;58.15
56600;BME280;51832;48.152;11.530;2023-04-28T01:06:44;95395.97;;;14.62;58.37
56600;BME280;51832;48.152;11.530;2023-04-28T01:11:46;95392.63;;;14.72;58.08
56600;BME280;51832;48.152;11.530;2023-04-28T01:16:46;95391.94;;;14.81;57.57
56600;BME280;51832;48.152;11.530;2023-04-28T01:21:50;95390.09;;;14.82;57.80
56600;BME280;51832;48.152;11.530;2023-04-28T01:26:51;95374.44;;;14.80;57.47
56600;BME280;51832;48.152;11.530;2023-04-28T01:31:51;95374.50;;;14.64;58.16
56600;BME280;51832;48.152;11.530;2023-04-28T01:36:51;95368.22;;;14.43;58.91
56600;BME280;51832;48.152;11.530;2023-04-28T01:41:52;95358.69;;;14.69;58.15
56600;BME280;51832;48.152;11.530;2023-04-28T01:46:52;95359.50;;;14.69;58.16
56600;BME280;51832;48.152;11.530;2023-04-28T01:51:52;95365.44;;;14.81;57.67
56600;BME280;51832;48.152;11.530;2023-04-28T01:56:53;95361.59;;;14.67;58.04
56600;BME280;51832;48.152;11.530;2023-04-28T02:01:53;95361.25;;;14.85;57.91
56600;BME280;51832;48.152;11.530;2023-04-28T02:06:54;95375.69;;;14.73;58.40
56600;BME280;51832;48.152;11.530;2023-04-28T02:11:54;95376.31;;;14.58;58.59
56600;BME280;51832;48.152;11.530;2023-04-28T02:16:54;95378.78;;;14.43;59.18
56600;BME280;51832;48.152;11.530;2023-04-28T02:21:55;95379.53;;;14.60;59.08
56600;BME280;51832;48.152;11.530;2023-04-28T02:26:55;95377.09;;;14.37;59.59
56600;BME280;51832;48.152;11.530;2023-04-28T02:31:56;95363.88;;;14.58;59.14
56600;BME280;51832;48.152;11.530;2023-04-28T02:36:56;95373.03;;;14.73;59.06
56600;BME280;51832;48.152;11.530;2023-04-28T02:41:57;95363.56;;;14.55;59.81
56600;BME280;51832;48.152;11.530;2023-04-28T02:46:57;95362.06;;;13.99;62.48
56600;BME280;51832;48.152;11.530;2023-04-28T02:51:58;95343.59;;;14.42;61.84
56600;BME280;51832;48.152;11.530;2023-04-28T02:56:58;95335.09;;;14.67;61.21
56600;BME280;51832;48.152;11.530;2023-04-28T03:01:58;95322.19;;;14.49;61.74
56600;BME280;51832;48.152;11.530;2023-04-28T03:06:59;95324.47;;;14.89;61.39
56600;BME280;51832;48.152;11.530;2023-04-28T03:11:59;95336.63;;;14.63;61.99
56600;BME280;51832;48.152;11.530;2023-04-28T03:17:02;95334.09;;;14.46;62.52
56600;BME280;51832;48.152;11.530;2023-04-28T03:22:02;95334.69;;;14.10;63.62
56600;BME280;51832;48.152;11.530;2023-04-28T03:27:03;95343.22;;;13.73;65.08
56600;BME280;51832;48.152;11.530;2023-04-28T03:32:05;95330.13;;;13.45;67.22
56600;BME280;51832;48.152;11.530;2023-04-28T03:37:05;95322.84;;;13.52;67.23
56600;BME280;51832;48.152;11.530;2023-04-28T03:42:06;95311.41;;;13.68;67.74
56600;BME280;51832;48.152;11.530;2023-04-28T03:47:06;95325.75;;;13.94;66.48
56600;BME280;51832;48.152;11.530;2023-04-28T03:52:07;95331.91;;;14.21;65.68
56600;BME280;51832;48.152;11.530;2023-04-28T03:57:07;95338.84;;;14.44;64.67
56600;BME280;51832;48.152;11.530;2023-04-28T04:02:08;95333.22;;;14.19;65.40
56600;BME280;51832;48.152;11.530;2023-04-28T04:07:08;95339.34;;;14.41;65.11
56600;BME280;51832;48.152;11.530;2023-04-28T04:12:10;95338.06;;;14.49;64.98
56600;BME280;51832;48.152;11.530;2023-04-28T04:17:10;95334.75;;;14.58;64.85
56600;BME280;51832;48.152;11.530;2023-04-28T04:22:11;95337.03;;;14.50;64.95
56600;BME280;51832;48.152;11.530;2023-04-28T04:27:11;95326.50;;;14.55;65.20
56600;BME280;51832;48.152;11.530;2023-04-28T04:32:11;95312.72;;;14.53;65.90
56600;BME280;51832;48.152;11.530;2023-04-28T04:37:12;95315.41;;;14.85;64.78
56600;BME280;51832;48.152;11.530;2023-04-28T04:42:12;95318.22;;;14.73;66.13
56600;BME280;51832;48.152;11.530;2023-04-28T04:47:13;95327.31;;;14.55;66.96
56600;BME280;51832;48.152;11.530;2023-04-28T04:52:13;95314.13;;;14.87;66.02
56600;BME280;51832;48.152;11.530;2023-04-28T04:57:13;95314.19;;;14.98;65.46
56600;BME280;51832;48.152;11.530;2023-04-28T05:02:14;95331.66;;;14.93;65.77
56600;BME280;51832;48.152;11.530;2023-04-28T05:07:14;95332.31;;;15.43;64.01
56600;BME280;51832;48.152;11.530;2023-04-28T05:12:15;95338.84;;;14.98;67.27
56600;BME280;51832;48.152;11.530;2023-04-28T05:17:15;95345.66;;;16.52;70.88
56600;BME280;51832;48.152;11.530;2023-04-28T05:22:16;95350.00;;;16.79;68.82
56600;BME280;51832;48.152;11.530;2023-04-28T05:27:17;95348.72;;;17.27;59.15
56600;BME280;51832;48.152;11.530;2023-04-28T05:32:18;95350.31;;;17.02;57.93
56600;BME280;51832;48.152;11.530;2023-04-28T05:37:18;95351.97;;;16.41;57.94
56600;BME280;51832;48.152;11.530;2023-04-28T05:42:19;95337.91;;;15.46;62.01
56600;BME280;51832;48.152;11.530;2023-04-28T05:47:20;95343.94;;;15.05;63.67
56600;BME280;51832;48.152;11.530;2023-04-28T05:52:20;95333.41;;;14.56;65.05
56600;BME280;51832;48.152;11.530;2023-04-28T05:57:20;95345.09;;;14.38;65.54
56600;BME280;51832;48.152;11.530;2023-04-28T06:02:21;95358.56;;;14.15;66.60
56600;BME280;51832;48.152;11.530;2023-04-28T06:07:21;95364.34;;;14.12;67.26
56600;BME280;51832;48.152;11.530;2023-04-28T06:12:22;95350.63;;;14.15;68.05
56600;BME280;51832;48.152;11.530;2023-04-28T06:17:22;95337.78;;;14.02;68.89
56600;BME280;51832;48.152;11.530;2023-04-28T06:22:24;95339.38;;;14.24;67.92
56600;BME280;51832;48.152;11.530;2023-04-28T06:27:24;95338.78;;;14.17;68.09
56600;BME280;51832;48.152;11.530;2023-04-28T06:32:25;95337.91;;;14.12;68.68
56600;BME280;51832;48.152;11.530;2023-04-28T06:37:26;95338.38;;;14.09;69.28
56600;BME280;51832;48.152;11.530;2023-04-28T06:42:26;95327.25;;;14.50;68.69
56600;BME280;51832;48.152;11.530;2023-04-28T06:47:27;95324.88;;;15.08;72.79
56600;BME280;51832;48.152;11.530;2023-04-28T06:52:27;95312.34;;;14.98;68.24
56600;BME280;51832;48.152;11.530;2023-04-28T06:57:29;95303.97;;;15.11;68.01
56600;BME280;51832;48.152;11.530;2023-04-28T07:02:30;95285.28;;;15.28;67.37
56600;BME280;51832;48.152;11.530;2023-04-28T07:07:30;95291.50;;;15.44;67.30
56600;BME280;51832;48.152;11.530;2023-04-28T07:12:31;95303.56;;;15.24;68.57
56600;BME280;51832;48.152;11.530;2023-04-28T07:17:31;95305.88;;;15.16;68.89
56600;BME280;51832;48.152;11.530;2023-04-28T07:22:32;95300.03;;;15.19;68.90
56600;BME280;51832;48.152;11.530;2023-04-28T07:27:32;95289.88;;;15.06;68.77
56600;BME280;51832;48.152;11.530;2023-04-28T07:32:33;95301.22;;;14.69;70.67
56600;BME280;51832;48.152;11.530;2023-04-28T07:37:36;95297.28;;;15.04;70.55
56600;BME280;51832;48.152;11.530;2023-04-28T07:42:36;95294.81;;;14.92;70.80
56600;BME280;51832;48.152;11.530;2023-04-28T07:47:37;95304.41;;;14.98;71.08
56600;BME280;51832;48.152;11.530;2023-04-28T07:52:37;95306.41;;;15.18;70.32
56600;BME280;51832;48.152;11.530;2023-04-28T07:57:39;95314.09;;;15.14;70.05
56600;BME280;51832;48.152;11.530;2023-04-28T08:02:41;95310.19;;;14.95;71.33
56600;BME280;51832;48.152;11.530;2023-04-28T08:07:42;95322.47;;;15.06;71.68
56600;BME280;51832;48.152;11.530;2023-04-28T08:12:42;95310.50;;;14.99;71.51
56600;BME280;51832;48.152;11.530;2023-04-28T08:17:44;95314.63;;;14.84;73.22
56600;BME280;51832;48.152;11.530;2023-04-28T08:22:45;95303.53;;;14.61;74.29
56600;BME280;51832;48.152;11.530;2023-04-28T08:27:45;95297.84;;;14.47;76.21
56600;BME280;51832;48.152;11.530;2023-04-28T08:32:46;95294.94;;;14.48;76.05
56600;BME280;51832;48.152;11.530;2023-04-28T08:37:46;95283.44;;;14.65;75.60
56600;BME280;51832;48.152;11.530;2023-04-28T08:42:48;95291.28;;;15.13;73.88
56600;BME280;51832;48.152;11.530;2023-04-28T08:47:50;95272.47;;;14.83;73.85
56600;BME280;51832;48.152;11.530;2023-04-28T08:52:51;95272.34;;;15.00;73.61
56600;BME280;51832;48.152;11.530;2023-04-28T08:57:51;95276.88;;;15.04;73.38
56600;BME280;51832;48.152;11.530;2023-04-28T09:02:53;95274.59;;;15.13;73.51
56600;BME280;51832;48.152;11.530;2023-04-28T09:07:53;95260.03;;;15.15;73.13
56600;BME280;51832;48.152;11.530;2023-04-28T09:12:55;95266.56;;;15.03;73.57
56600;BME280;51832;48.152;11.530;2023-04-28T09:17:56;95263.09;;;15.39;72.46
56600;BME280;51832;48.152;11.530;2023-04-28T09:28:22;95251.50;;;14.49;76.25
56600;BME280;51832;48.152;11.530;2023-04-28T09:33:22;95266.38;;;14.82;75.15
56600;BME280;51832;48.152;11.530;2023-04-28T09:38:23;95266.84;;;14.74;76.24
56600;BME280;51832;48.152;11.530;2023-04-28T09:48:35;95239.44;;;14.10;79.81
56600;BME280;51832;48.152;11.530;2023-04-28T09:53:35;95237.47;;;14.49;79.32
56600;BME280;51832;48.152;11.530;2023-04-28T09:58:39;95247.13;;;14.60;79.60
56600;BME280;51832;48.152;11.530;2023-04-28T10:03:40;95233.25;;;14.48;79.38
56600;BME280;51832;48.152;11.530;2023-04-28T10:08:41;95233.22;;;16.16;76.18
56600;BME280;51832;48.152;11.530;2023-04-28T10:13:42;95242.38;;;16.66;74.66
56600;BME280;51832;48.152;11.530;2023-04-28T10:18:46;95237.88;;;16.66;75.06
56600;BME280;51832;48.152;11.530;2023-04-28T10:28:50;95242.19;;;15.48;77.68
56600;BME280;51832;48.152;11.530;2023-04-28T10:33:51;95226.31;;;15.53;78.79
56600;BME280;51832;48.152;11.530;2023-04-28T10:39:08;95226.88;;;15.18;80.38
56600;BME280;51832;48.152;11.530;2023-04-28T11:00:39;95231.69;;;14.84;82.03
56600;BME280;51832;48.152;11.530;2023-04-28T11:11:28;95232.06;;;14.98;82.36
56600;BME280;51832;48.152;11.530;2023-04-28T11:16:29;95232.63;;;15.00;81.11
56600;BME280;51832;48.152;11.530;2023-04-28T11:21:31;95231.69;;;15.21;80.92
56600;BME280;51832;48.152;11.530;2023-04-28T11:26:36;95243.59;;;14.81;82.15
56600;BME280;51832;48.152;11.530;2023-04-28T11:31:37;95237.88;;;15.37;79.68
56600;BME280;51832;48.152;11.530;2023-04-28T11:36:38;95245.19;;;15.56;78.51
56600;BME280;51832;48.152;11.530;2023-04-28T11:41:41;95242.91;;;15.80;77.59
56600;BME280;51832;48.152;11.530;2023-04-28T11:46:45;95235.28;;;15.99;78.38
56600;BME280;51832;48.152;11.530;2023-04-28T11:51:50;95245.19;;;15.56;78.87
56600;BME280;51832;48.152;11.530;2023-04-28T11:56:52;95234.13;;;15.75;79.49
56600;BME280;51832;48.152;11.530;2023-04-28T12:01:55;95237.88;;;15.79;79.74
56600;BME280;51832;48.152;11.530;2023-04-28T12:12:04;95235.47;;;15.30;81.97
56600;BME280;51832;48.152;11.530;2023-04-28T12:17:04;95238.44;;;15.39;82.99
56600;BME280;51832;48.152;11.530;2023-04-28T12:22:05;95231.84;;;15.46;82.68
56600;BME280;51832;48.152;11.530;2023-04-28T12:27:17;95242.19;;;15.43;83.23
56600;BME280;51832;48.152;11.530;2023-04-28T12:32:36;95247.72;;;14.99;85.20
56600;BME280;51832;48.152;11.530;2023-04-28T12:37:37;95253.16;;;14.55;88.06
56600;BME280;51832;48.152;11.530;2023-04-28T12:42:39;95258.69;;;15.13;86.91
56600;BME280;51832;48.152;11.530;2023-04-28T12:47:39;95255.69;;;15.41;86.05
56600;BME280;51832;48.152;11.530;2023-04-28T12:52:40;95260.88;;;15.63;85.86
56600;BME280;51832;48.152;11.530;2023-04-28T12:57:41;95250.84;;;15.70;85.92
56600;BME280;51832;48.152;11.530;2023-04-28T13:02:41;95244.69;;;15.64;86.00
56600;BME280;51832;48.152;11.530;2023-04-28T13:07:42;95245.38;;;15.50;85.97
56600;BME280;51832;48.152;11.530;2023-04-28T13:12:42;95241.69;;;15.51;86.91
56600;BME280;51832;48.152;11.530;2023-04-28T13:17:42;95239.09;;;15.56;85.92
56600;BME280;51832;48.152;11.530;2023-04-28T13:22:45;95227.28;;;15.89;84.83
56600;BME280;51832;48.152;11.530;2023-04-28T13:27:46;95228.03;;;15.74;86.25
56600;BME280;51832;48.152;11.530;2023-04-28T13:32:46;95233.47;;;15.52;87.28
56600;BME280;51832;48.152;11.530;2023-04-28T13:37:46;95228.34;;;15.88;86.47
56600;BME280;51832;48.152;11.530;2023-04-28T13:42:47;95221.81;;;16.11;85.03
56600;BME280;51832;48.152;11.530;2023-04-28T13:47:47;95219.69;;;16.18;85.77
56600;BME280;51832;48.152;11.530;2023-04-28T13:52:48;95226.56;;;16.14;85.08
56600;BME280;51832;48.152;11.530;2023-04-28T13:57:48;95226.06;;;16.12;84.52
56600;BME280;51832;48.152;11.530;2023-04-28T14:02:49;95225.00;;;16.28;84.63
56600;BME280;51832;48.152;11.530;2023-04-28T14:07:50;95219.19;;;16.41;84.19
56600;BME280;51832;48.152;11.530;2023-04-28T14:12:52;95217.06;;;17.39;78.90
56600;BME280;51832;48.152;11.530;2023-04-28T14:17:52;95218.44;;;17.01;80.35
56600;BME280;51832;48.152;11.530;2023-04-28T14:22:53;95210.72;;;17.10;79.79
56600;BME280;51832;48.152;11.530;2023-04-28T14:27:53;95206.44;;;17.29;78.73
56600;BME280;51832;48.152;11.530;2023-04-28T14:32:54;95203.28;;;17.12;78.58
56600;BME280;51832;48.152;11.530;2023-04-28T14:37:54;95197.34;;;17.56;78.21
56600;BME280;51832;48.152;11.530;2023-04-28T14:42:55;95199.59;;;17.03;79.40
56600;BME280;51832;48.152;11.530;2023-04-28T14:47:56;95203.44;;;17.61;78.81
56600;BME280;51832;48.152;11.530;2023-04-28T14:52:56;95192.00;;;17.66;78.67
56600;BME280;51832;48.152;11.530;2023-04-28T14:58:04;95200.53;;;17.63;78.56
56600;BME280;51832;48.152;11.530;2023-04-28T15:03:04;95185.28;;;17.79;78.14
56600;BME280;51832;48.152;11.530;2023-04-28T15:08:05;95181.00;;;17.88;78.54
56600;BME280;51832;48.152;11.530;2023-04-28T15:13:06;95195.06;;;17.93;78.67
56600;BME280;51832;48.152;11.530;2023-04-28T15:18:06;95196.22;;;17.77;79.80
56600;BME280;51832;48.152;11.530;2023-04-28T15:23:06;95194.41;;;18.22;78.57
56600;BME280;51832;48.152;11.530;2023-04-28T15:28:08;95194.66;;;17.56;80.67
56600;BME280;51832;48.152;11.530;2023-04-28T15:33:09;95192.34;;;18.08;78.89
56600;BME280;51832;48.152;11.530;2023-04-28T15:38:16;95193.59;;;17.57;80.30
56600;BME280;51832;48.152;11.530;2023-04-28T15:43:16;95193.78;;;17.86;80.42
56600;BME280;51832;48.152;11.530;2023-04-28T15:48:17;95197.69;;;17.29;81.30
56600;BME280;51832;48.152;11.530;2023-04-28T15:53:17;95198.69;;;17.48;80.79
56600;BME280;51832;48.152;11.530;2023-04-28T15:58:18;95192.31;;;17.39;81.64
56600;BME280;51832;48.152;11.530;2023-04-28T16:03:19;95187.25;;;17.48;81.33
56600;BME280;51832;48.152;11.530;2023-04-28T16:08:20;95192.47;;;17.83;80.15
56600;BME280;51832;48.152;11.530;2023-04-28T16:13:23;95170.56;;;18.01;79.67
56600;BME280;51832;48.152;11.530;2023-04-28T16:18:23;95173.16;;;18.11;79.15
56600;BME280;51832;48.152;11.530;2023-04-28T16:23:24;95181.41;;;18.10;79.52
56600;BME280;51832;48.152;11.530;2023-04-28T16:28:25;95171.63;;;18.00;80.22
56600;BME280;51832;48.152;11.530;2023-04-28T16:33:26;95170.25;;;18.08;79.51
56600;BME280;51832;48.152;11.530;2023-04-28T16:38:26;95170.31;;;17.93;80.53
56600;BME280;51832;48.152;11.530;2023-04-28T16:43:26;95161.47;;;18.07;78.87
56600;BME280;51832;48.152;11.530;2023-04-28T16:48:27;95138.34;;;18.03;79.02
56600;BME280;51832;48.152;11.530;2023-04-28T16:53:27;95160.06;;;17.66;80.16
56600;BME280;51832;48.152;11.530;2023-04-28T16:58:28;95169.91;;;17.75;80.35
56600;BME280;51832;48.152;11.530;2023-04-28T17:03:28;95167.19;;;17.81;80.50
56600;BME280;51832;48.152;11.530;2023-04-28T17:08:29;95174.91;;;17.82;79.81
56600;BME280;51832;48.152;11.530;2023-04-28T17:13:32;95152.53;;;17.88;79.27
56600;BME280;51832;48.152;11.530;2023-04-28T17:18:33;95110.84;;;17.63;81.50
56600;BME280;51832;48.152;11.530;2023-04-28T17:23:33;95111.72;;;17.49;82.29
56600;BME280;51832;48.152;11.530;2023-04-28T17:28:34;95096.47;;;17.64;81.53
56600;BME280;51832;48.152;11.530;2023-04-28T17:33:34;95128.75;;;17.48;82.14
56600;BME280;51832;48.152;11.530;2023-04-28T17:38:35;95139.88;;;17.50;82.75
56600;BME280;51832;48.152;11.530;2023-04-28T17:43:35;95156.09;;;17.53;82.84
56600;BME280;51832;48.152;11.530;2023-04-28T17:48:36;95173.66;;;17.54;83.19
56600;BME280;51832;48.152;11.530;2023-04-28T17:53:37;95137.22;;;17.55;82.41
56600;BME280;51832;48.152;11.530;2023-04-28T18:03:45;95159.59;;;17.44;80.05
56600;BME280;51832;48.152;11.530;2023-04-28T18:08:45;95156.22;;;17.18;79.90
56600;BME280;51832;48.152;11.530;2023-04-28T18:13:46;95180.91;;;17.28;80.02
56600;BME280;51832;48.152;11.530;2023-04-28T18:18:46;95181.47;;;17.10;80.01
56600;BME280;51832;48.152;11.530;2023-04-28T18:23:47;95200.13;;;16.64;82.42
56600;BME280;51832;48.152;11.530;2023-04-28T18:28:48;95207.56;;;16.93;81.44
56600;BME280;51832;48.152;11.530;2023-04-28T18:33:48;95209.66;;;16.50;81.79
56600;BME280;51832;48.152;11.530;2023-04-28T18:38:49;95224.00;;;16.59;83.38
56600;BME280;51832;48.152;11.530;2023-04-28T18:43:49;95237.00;;;16.56;84.38
56600;BME280;51832;48.152;11.530;2023-04-28T18:48:50;95282.09;;;16.25;84.89
56600;BME280;51832;48.152;11.530;2023-04-28T18:53:51;95294.16;;;15.49;87.79
56600;BME280;51832;48.152;11.530;2023-04-28T18:58:51;95240.31;;;15.43;88.00
56600;BME280;51832;48.152;11.530;2023-04-28T19:03:52;95267.44;;;15.18;87.89
56600;BME280;51832;48.152;11.530;2023-04-28T19:08:53;95308.13;;;15.71;83.97
56600;BME280;51832;48.152;11.530;2023-04-28T19:13:54;95303.78;;;16.07;81.93
56600;BME280;51832;48.152;11.530;2023-04-28T19:18:54;95306.75;;;16.16;81.83
56600;BME280;51832;48.152;11.530;2023-04-28T19:23:55;95300.19;;;15.76;82.89
56600;BME280;51832;48.152;11.530;2023-04-28T19:28:56;95306.41;;;16.02;82.58
56600;BME280;51832;48.152;11.530;2023-04-28T19:33:56;95312.81;;;16.06;82.04
56600;BME280;51832;48.152;11.530;2023-04-28T19:38:57;95328.81;;;16.21;81.94
56600;BME280;51832;48.152;11.530;2023-04-28T19:43:58;95359.03;;;16.15;80.48
56600;BME280;51832;48.152;11.530;2023-04-28T19:48:58;95336.53;;;16.33;80.15
56600;BME280;51832;48.152;11.530;2023-04-28T19:53:58;95313.47;;;16.44;81.51
56600;BME280;51832;48.152;11.530;2023-04-28T19:59:00;95308.13;;;16.33;81.44
56600;BME280;51832;48.152;11.530;2023-04-28T20:04:00;95307.78;;;16.15;81.19
56600;BME280;51832;48.152;11.530;2023-04-28T20:09:01;95299.16;;;15.82;84.88
56600;BME280;51832;48.152;11.530;2023-04-28T20:14:01;95282.91;;;15.32;84.67
56600;BME280;51832;48.152;11.530;2023-04-28T20:19:02;95285.75;;;15.20;85.83
56600;BME280;51832;48.152;11.530;2023-04-28T20:24:02;95274.91;;;15.21;86.52
56600;BME280;51832;48.152;11.530;2023-04-28T20:29:03;95287.59;;;15.19;85.75
56600;BME280;51832;48.152;11.530;2023-04-28T20:34:03;95273.47;;;15.46;85.26
56600;BME280;51832;48.152;11.530;2023-04-28T20:39:04;95270.13;;;14.86;86.62
56600;BME280;51832;48.152;11.530;2023-04-28T20:44:07;95267.53;;;14.65;86.83
56600;BME280;51832;48.152;11.530;2023-04-28T20:49:07;95264.47;;;14.73;86.97
56600;BME280;51832;48.152;11.530;2023-04-28T20:54:08;95252.34;;;14.82;86.22
56600;BME280;51832;48.152;11.530;2023-04-28T20:59:09;95271.50;;;14.94;85.34
56600;BME280;51832;48.152;11.530;2023-04-28T21:04:10;95276.44;;;14.80;85.58
56600;BME280;51832;48.152;11.530;2023-04-28T21:09:10;95277.97;;;14.76;84.78
56600;BME280;51832;48.152;11.530;2023-04-28T21:14:13;95286.44;;;14.24;87.10
56600;BME280;51832;48.152;11.530;2023-04-28T21:19:14;95287.09;;;14.37;86.68
56600;BME280;51832;48.152;11.530;2023-04-28T21:24:15;95288.47;;;14.66;86.07
56600;BME280;51832;48.152;11.530;2023-04-28T21:29:15;95269.63;;;14.57;85.48
56600;BME280;51832;48.152;11.530;2023-04-28T21:34:17;95275.66;;;14.53;85.77
56600;BME280;51832;48.152;11.530;2023-04-28T21:39:17;95266.41;;;14.55;85.82
56600;BME280;51832;48.152;11.530;2023-04-28T21:44:18;95268.72;;;14.25;86.65
56600;BME280;51832;48.152;11.530;2023-04-28T21:49:18;95269.28;;;14.27;85.84
56600;BME280;51832;48.152;11.530;2023-04-28T21:54:19;95271.22;;;14.58;83.98
56600;BME280;51832;48.152;11.530;2023-04-28T21:59:20;95281.28;;;14.35;84.24
56600;BME280;51832;48.152;11.530;2023-04-28T22:04:20;95274.41;;;14.39;84.02
56600;BME280;51832;48.152;11.530;2023-04-28T22:09:21;95278.31;;;14.31;84.65
56600;BME280;51832;48.152;11.530;2023-04-28T22:14:21;95272.16;;;14.47;84.11
56600;BME280;51832;48.152;11.530;2023-04-28T22:19:21;95279.59;;;14.50;84.30
56600;BME280;51832;48.152;11.530;2023-04-28T22:24:22;95275.50;;;14.16;85.52
56600;BME280;51832;48.152;11.530;2023-04-28T22:29:22;95265.28;;;14.46;83.95
56600;BME280;51832;48.152;11.530;2023-04-28T22:34:23;95257.28;;;14.41;84.68
56600;BME280;51832;48.152;11.530;2023-04-28T22:39:24;95250.47;;;14.02;85.64
56600;BME280;51832;48.152;11.530;2023-04-28T22:44:25;95248.31;;;13.99;85.69
56600;BME280;51832;48.152;11.530;2023-04-28T22:49:26;95248.56;;;14.19;85.14
56600;BME280;51832;48.152;11.530;2023-04-28T22:54:27;95242.84;;;14.54;83.65
56600;BME280;51832;48.152;11.530;2023-04-28T22:59:28;95224.78;;;14.51;83.37
56600;BME280;51832;48.152;11.530;2023-04-28T23:04:28;95220.59;;;14.87;81.80
56600;BME280;51832;48.152;11.530;2023-04-28T23:09:29;95217.31;;;14.43;83.47
56600;BME280;51832;48.152;11.530;2023-04-28T23:14:31;95221.72;;;14.10;84.92
56600;BME280;51832;48.152;11.530;2023-04-28T23:19:32;95214.34;;;14.66;81.86
56600;BME280;51832;48.152;11.530;2023-04-28T23:24:34;95212.59;;;15.19;80.53
56600;BME280;51832;48.152;11.530;2023-04-28T23:29:35;95206.94;;;14.68;81.57
56600;BME280;51832;48.152;11.530;2023-04-28T23:34:36;95216.00;;;14.72;81.70
56600;BME280;51832;48.152;11.530;2023-04-28T23:39:38;95218.69;;;15.14;79.05
56600;BME280;51832;48.152;11.530;2023-04-28T23:44:38;95205.94;;;15.11;79.51
56600;BME280;51832;48.152;11.530;2023-04-28T23:49:38;95195.81;;;15.03;79.00
56600;BME280;51832;48.152;11.530;2023-04-28T23:54:39;95182.78;;;14.60;81.30
56600;BME280;51832;48.152;11.530;2023-04-28T23:59:39;95187.84;;;14.34;82.10
